sensor_id;sensor_type;location;lat;lon;timestamp;P1;durP1;ratioP1;P2;durP2;ratioP2
65459;SDS011;52058;49.822;6.754;2023-10-13T00:00:25;13.88;;;8.30;;
65459;SDS011;52058;49.822;6.754;2023-10-13T00:02:54;16.90;;;7.75;;
65459;SDS011;52058;49.822;6.754;2023-10-13T00:05:25;11.93;;;7.80;;
65459;SDS011;52058;49.822;6.754;2023-10-13T00:07:52;14.38;;;8.20;;
65459;SDS011;52058;49.822;6.754;2023-10-13T00:10:19;13.77;;;7.78;;
65459;SDS011;52058;49.822;6.754;2023-10-13T00:12:46;13.32;;;7.82;;
65459;SDS011;52058;49.822;6.754;2023-10-13T00:15:16;12.88;;;8.02;;
65459;SDS011;52058;49.822;6.754;2023-10-13T00:17:53;13.20;;;8.35;;
65459;SDS011;52058;49.822;6.754;2023-10-13T00:20:20;13.85;;;7.82;;
65459;SDS011;52058;49.822;6.754;2023-10-13T00:23:04;12.40;;;7.78;;
65459;SDS011;52058;49.822;6.754;2023-10-13T00:25:31;15.80;;;7.60;;
65459;SDS011;52058;49.822;6.754;2023-10-13T00:28:04;13.80;;;8.50;;
65459;SDS011;52058;49.822;6.754;2023-10-13T00:30:35;17.63;;;8.65;;
65459;SDS011;52058;49.822;6.754;2023-10-13T00:33:02;11.05;;;8.05;;
65459;SDS011;52058;49.822;6.754;2023-10-13T00:35:29;10.98;;;7.75;;
65459;SDS011;52058;49.822;6.754;2023-10-13T00:38:02;11.95;;;7.90;;
65459;SDS011;52058;49.822;6.754;2023-10-13T00:40:37;16.48;;;7.55;;
65459;SDS011;52058;49.822;6.754;2023-10-13T00:43:09;16.25;;;8.43;;
65459;SDS011;52058;49.822;6.754;2023-10-13T00:45:55;16.20;;;8.30;;
65459;SDS011;52058;49.822;6.754;2023-10-13T00:48:23;11.70;;;7.93;;
65459;SDS011;52058;49.822;6.754;2023-10-13T00:50:55;13.77;;;8.77;;
65459;SDS011;52058;49.822;6.754;2023-10-13T00:53:24;14.15;;;8.27;;
65459;SDS011;52058;49.822;6.754;2023-10-13T00:55:50;13.20;;;8.00;;
65459;SDS011;52058;49.822;6.754;2023-10-13T00:58:19;10.75;;;7.93;;
65459;SDS011;52058;49.822;6.754;2023-10-13T01:00:47;17.10;;;8.48;;
65459;SDS011;52058;49.822;6.754;2023-10-13T01:03:22;16.45;;;8.27;;
65459;SDS011;52058;49.822;6.754;2023-10-13T01:05:52;12.82;;;8.30;;
65459;SDS011;52058;49.822;6.754;2023-10-13T01:08:30;17.67;;;8.85;;
65459;SDS011;52058;49.822;6.754;2023-10-13T01:10:59;16.75;;;8.32;;
65459;SDS011;52058;49.822;6.754;2023-10-13T01:13:25;12.75;;;8.68;;
65459;SDS011;52058;49.822;6.754;2023-10-13T01:15:52;16.00;;;9.93;;
65459;SDS011;52058;49.822;6.754;2023-10-13T01:18:18;16.17;;;8.73;;
65459;SDS011;52058;49.822;6.754;2023-10-13T01:20:46;14.40;;;8.88;;
65459;SDS011;52058;49.822;6.754;2023-10-13T01:23:18;14.75;;;9.10;;
65459;SDS011;52058;49.822;6.754;2023-10-13T01:25:44;16.95;;;9.38;;
65459;SDS011;52058;49.822;6.754;2023-10-13T01:28:13;14.15;;;8.13;;
65459;SDS011;52058;49.822;6.754;2023-10-13T01:30:41;18.48;;;9.18;;
65459;SDS011;52058;49.822;6.754;2023-10-13T01:33:08;16.63;;;9.45;;
65459;SDS011;52058;49.822;6.754;2023-10-13T01:35:35;17.05;;;10.55;;
65459;SDS011;52058;49.822;6.754;2023-10-13T01:38:07;20.85;;;10.95;;
65459;SDS011;52058;49.822;6.754;2023-10-13T01:40:34;16.45;;;10.40;;
65459;SDS011;52058;49.822;6.754;2023-10-13T01:43:01;19.42;;;10.07;;
65459;SDS011;52058;49.822;6.754;2023-10-13T01:45:29;14.73;;;8.65;;
65459;SDS011;52058;49.822;6.754;2023-10-13T01:47:55;19.40;;;9.73;;
65459;SDS011;52058;49.822;6.754;2023-10-13T01:50:22;13.25;;;9.07;;
65459;SDS011;52058;49.822;6.754;2023-10-13T01:52:53;14.83;;;9.40;;
65459;SDS011;52058;49.822;6.754;2023-10-13T01:55:38;15.23;;;9.07;;
65459;SDS011;52058;49.822;6.754;2023-10-13T01:58:08;11.93;;;8.20;;
65459;SDS011;52058;49.822;6.754;2023-10-13T02:00:40;15.13;;;8.77;;
65459;SDS011;52058;49.822;6.754;2023-10-13T02:03:07;16.70;;;8.60;;
65459;SDS011;52058;49.822;6.754;2023-10-13T02:05:39;13.82;;;8.55;;
65459;SDS011;52058;49.822;6.754;2023-10-13T02:08:08;16.02;;;8.77;;
65459;SDS011;52058;49.822;6.754;2023-10-13T02:10:35;14.20;;;9.15;;
65459;SDS011;52058;49.822;6.754;2023-10-13T02:15:40;20.83;;;8.70;;
65459;SDS011;52058;49.822;6.754;2023-10-13T02:18:07;16.42;;;9.27;;
65459;SDS011;52058;49.822;6.754;2023-10-13T02:20:34;16.45;;;8.75;;
65459;SDS011;52058;49.822;6.754;2023-10-13T02:23:06;15.88;;;9.10;;
65459;SDS011;52058;49.822;6.754;2023-10-13T02:25:36;14.02;;;8.68;;
65459;SDS011;52058;49.822;6.754;2023-10-13T02:28:07;15.90;;;8.60;;
65459;SDS011;52058;49.822;6.754;2023-10-13T02:30:38;16.15;;;8.85;;
65459;SDS011;52058;49.822;6.754;2023-10-13T02:33:05;15.82;;;9.65;;
65459;SDS011;52058;49.822;6.754;2023-10-13T02:35:31;16.02;;;8.90;;
65459;SDS011;52058;49.822;6.754;2023-10-13T02:38:08;14.00;;;8.70;;
65459;SDS011;52058;49.822;6.754;2023-10-13T02:40:40;18.13;;;8.93;;
65459;SDS011;52058;49.822;6.754;2023-10-13T02:43:07;13.27;;;9.00;;
65459;SDS011;52058;49.822;6.754;2023-10-13T02:45:35;14.93;;;9.30;;
65459;SDS011;52058;49.822;6.754;2023-10-13T02:48:02;18.58;;;8.80;;
65459;SDS011;52058;49.822;6.754;2023-10-13T02:50:42;14.73;;;9.30;;
65459;SDS011;52058;49.822;6.754;2023-10-13T02:53:09;17.88;;;8.93;;
65459;SDS011;52058;49.822;6.754;2023-10-13T02:55:48;14.93;;;8.27;;
65459;SDS011;52058;49.822;6.754;2023-10-13T02:58:14;12.27;;;8.40;;
65459;SDS011;52058;49.822;6.754;2023-10-13T03:00:42;18.42;;;8.68;;
65459;SDS011;52058;49.822;6.754;2023-10-13T03:03:09;14.25;;;8.32;;
65459;SDS011;52058;49.822;6.754;2023-10-13T03:05:35;13.20;;;7.97;;
65459;SDS011;52058;49.822;6.754;2023-10-13T03:08:04;16.45;;;8.07;;
65459;SDS011;52058;49.822;6.754;2023-10-13T03:10:31;13.20;;;8.23;;
65459;SDS011;52058;49.822;6.754;2023-10-13T03:12:57;14.38;;;8.20;;
65459;SDS011;52058;49.822;6.754;2023-10-13T03:15:27;12.55;;;8.30;;
65459;SDS011;52058;49.822;6.754;2023-10-13T03:17:57;16.58;;;8.55;;
65459;SDS011;52058;49.822;6.754;2023-10-13T03:20:24;13.43;;;8.38;;
65459;SDS011;52058;49.822;6.754;2023-10-13T03:22:56;16.17;;;8.10;;
65459;SDS011;52058;49.822;6.754;2023-10-13T03:25:23;17.92;;;7.75;;
65459;SDS011;52058;49.822;6.754;2023-10-13T03:27:54;13.73;;;7.07;;
65459;SDS011;52058;49.822;6.754;2023-10-13T03:30:29;14.75;;;8.38;;
65459;SDS011;52058;49.822;6.754;2023-10-13T03:33:02;18.33;;;8.13;;
65459;SDS011;52058;49.822;6.754;2023-10-13T03:35:33;14.60;;;8.57;;
65459;SDS011;52058;49.822;6.754;2023-10-13T03:38:09;17.38;;;8.63;;
65459;SDS011;52058;49.822;6.754;2023-10-13T03:40:46;18.95;;;8.52;;
65459;SDS011;52058;49.822;6.754;2023-10-13T03:43:21;17.35;;;8.70;;
65459;SDS011;52058;49.822;6.754;2023-10-13T03:45:48;17.35;;;9.00;;
65459;SDS011;52058;49.822;6.754;2023-10-13T03:48:26;19.10;;;8.10;;
65459;SDS011;52058;49.822;6.754;2023-10-13T03:50:57;15.05;;;7.80;;
65459;SDS011;52058;49.822;6.754;2023-10-13T03:53:28;12.85;;;8.48;;
65459;SDS011;52058;49.822;6.754;2023-10-13T03:55:58;13.07;;;7.90;;
65459;SDS011;52058;49.822;6.754;2023-10-13T03:58:34;17.30;;;8.18;;
65459;SDS011;52058;49.822;6.754;2023-10-13T04:01:01;18.58;;;8.57;;
65459;SDS011;52058;49.822;6.754;2023-10-13T04:03:30;17.35;;;8.18;;
65459;SDS011;52058;49.822;6.754;2023-10-13T04:06:00;17.77;;;8.60;;
65459;SDS011;52058;49.822;6.754;2023-10-13T04:08:31;15.05;;;8.10;;
65459;SDS011;52058;49.822;6.754;2023-10-13T04:11:35;16.42;;;7.55;;
65459;SDS011;52058;49.822;6.754;2023-10-13T04:14:24;18.00;;;8.30;;
65459;SDS011;52058;49.822;6.754;2023-10-13T04:17:10;16.38;;;8.35;;
65459;SDS011;52058;49.822;6.754;2023-10-13T04:19:40;15.80;;;8.98;;
65459;SDS011;52058;49.822;6.754;2023-10-13T04:22:32;14.98;;;8.15;;
65459;SDS011;52058;49.822;6.754;2023-10-13T04:25:13;15.30;;;9.10;;
65459;SDS011;52058;49.822;6.754;2023-10-13T04:28:00;15.30;;;8.23;;
65459;SDS011;52058;49.822;6.754;2023-10-13T04:30:40;14.25;;;7.75;;
65459;SDS011;52058;49.822;6.754;2023-10-13T04:33:22;13.65;;;7.35;;
65459;SDS011;52058;49.822;6.754;2023-10-13T04:36:02;12.45;;;6.90;;
65459;SDS011;52058;49.822;6.754;2023-10-13T04:38:39;16.52;;;7.88;;
65459;SDS011;52058;49.822;6.754;2023-10-13T04:41:20;12.95;;;7.75;;
65459;SDS011;52058;49.822;6.754;2023-10-13T04:43:48;22.85;;;7.88;;
65459;SDS011;52058;49.822;6.754;2023-10-13T04:46:29;17.60;;;7.45;;
65459;SDS011;52058;49.822;6.754;2023-10-13T04:49:19;13.18;;;7.80;;
65459;SDS011;52058;49.822;6.754;2023-10-13T04:51:55;13.38;;;7.35;;
65459;SDS011;52058;49.822;6.754;2023-10-13T04:54:24;12.85;;;7.47;;
65459;SDS011;52058;49.822;6.754;2023-10-13T04:57:09;11.70;;;7.47;;
65459;SDS011;52058;49.822;6.754;2023-10-13T04:59:53;15.52;;;7.93;;
65459;SDS011;52058;49.822;6.754;2023-10-13T05:02:37;14.90;;;8.20;;
65459;SDS011;52058;49.822;6.754;2023-10-13T05:05:42;13.23;;;7.47;;
65459;SDS011;52058;49.822;6.754;2023-10-13T05:08:37;15.18;;;7.75;;
65459;SDS011;52058;49.822;6.754;2023-10-13T05:11:21;14.32;;;7.15;;
65459;SDS011;52058;49.822;6.754;2023-10-13T05:14:05;14.07;;;6.47;;
65459;SDS011;52058;49.822;6.754;2023-10-13T05:16:49;11.18;;;6.97;;
65459;SDS011;52058;49.822;6.754;2023-10-13T05:19:29;13.00;;;7.05;;
65459;SDS011;52058;49.822;6.754;2023-10-13T05:22:13;14.45;;;8.20;;
65459;SDS011;52058;49.822;6.754;2023-10-13T05:24:58;15.93;;;8.27;;
65459;SDS011;52058;49.822;6.754;2023-10-13T05:27:42;14.98;;;7.95;;
65459;SDS011;52058;49.822;6.754;2023-10-13T05:30:26;14.38;;;7.60;;
65459;SDS011;52058;49.822;6.754;2023-10-13T05:33:10;13.65;;;7.78;;
65459;SDS011;52058;49.822;6.754;2023-10-13T05:35:54;15.90;;;7.78;;
65459;SDS011;52058;49.822;6.754;2023-10-13T05:38:38;16.55;;;7.75;;
65459;SDS011;52058;49.822;6.754;2023-10-13T05:41:23;16.55;;;7.25;;
65459;SDS011;52058;49.822;6.754;2023-10-13T05:44:07;17.88;;;7.97;;
65459;SDS011;52058;49.822;6.754;2023-10-13T05:46:51;14.18;;;8.10;;
65459;SDS011;52058;49.822;6.754;2023-10-13T05:49:31;15.40;;;8.27;;
65459;SDS011;52058;49.822;6.754;2023-10-13T05:52:15;16.25;;;8.23;;
65459;SDS011;52058;49.822;6.754;2023-10-13T05:54:59;16.70;;;7.78;;
65459;SDS011;52058;49.822;6.754;2023-10-13T05:57:45;17.38;;;8.05;;
65459;SDS011;52058;49.822;6.754;2023-10-13T06:00:28;18.42;;;8.18;;
65459;SDS011;52058;49.822;6.754;2023-10-13T06:03:12;16.13;;;9.43;;
65459;SDS011;52058;49.822;6.754;2023-10-13T06:05:56;17.10;;;8.25;;
65459;SDS011;52058;49.822;6.754;2023-10-13T06:08:40;14.05;;;8.18;;
65459;SDS011;52058;49.822;6.754;2023-10-13T06:11:24;17.95;;;8.52;;
65459;SDS011;52058;49.822;6.754;2023-10-13T06:14:08;18.05;;;8.70;;
65459;SDS011;52058;49.822;6.754;2023-10-13T06:16:52;19.58;;;7.93;;
65459;SDS011;52058;49.822;6.754;2023-10-13T06:19:36;16.65;;;7.50;;
65459;SDS011;52058;49.822;6.754;2023-10-13T06:22:20;16.92;;;7.32;;
65459;SDS011;52058;49.822;6.754;2023-10-13T06:25:04;20.70;;;8.05;;
65459;SDS011;52058;49.822;6.754;2023-10-13T06:27:49;17.42;;;7.97;;
65459;SDS011;52058;49.822;6.754;2023-10-13T06:30:34;14.27;;;7.30;;
65459;SDS011;52058;49.822;6.754;2023-10-13T06:33:00;10.75;;;7.03;;
65459;SDS011;52058;49.822;6.754;2023-10-13T06:35:29;12.02;;;7.88;;
65459;SDS011;52058;49.822;6.754;2023-10-13T06:37:56;13.02;;;6.93;;
65459;SDS011;52058;49.822;6.754;2023-10-13T06:40:25;15.00;;;7.35;;
65459;SDS011;52058;49.822;6.754;2023-10-13T06:42:51;13.52;;;7.18;;
65459;SDS011;52058;49.822;6.754;2023-10-13T06:45:18;16.98;;;7.72;;
65459;SDS011;52058;49.822;6.754;2023-10-13T06:47:48;16.40;;;7.05;;
65459;SDS011;52058;49.822;6.754;2023-10-13T06:50:18;20.88;;;7.47;;
65459;SDS011;52058;49.822;6.754;2023-10-13T06:52:49;14.95;;;6.75;;
65459;SDS011;52058;49.822;6.754;2023-10-13T06:55:20;15.85;;;7.05;;
65459;SDS011;52058;49.822;6.754;2023-10-13T06:57:52;17.70;;;7.38;;
65459;SDS011;52058;49.822;6.754;2023-10-13T07:00:18;16.02;;;7.30;;
65459;SDS011;52058;49.822;6.754;2023-10-13T07:02:54;17.52;;;7.13;;
65459;SDS011;52058;49.822;6.754;2023-10-13T07:05:30;13.38;;;6.68;;
65459;SDS011;52058;49.822;6.754;2023-10-13T07:08:00;13.52;;;7.53;;
65459;SDS011;52058;49.822;6.754;2023-10-13T07:10:29;18.35;;;6.22;;
65459;SDS011;52058;49.822;6.754;2023-10-13T07:13:00;13.75;;;5.93;;
65459;SDS011;52058;49.822;6.754;2023-10-13T07:15:29;13.18;;;6.10;;
65459;SDS011;52058;49.822;6.754;2023-10-13T07:17:57;14.43;;;6.25;;
65459;SDS011;52058;49.822;6.754;2023-10-13T07:20:25;13.18;;;6.05;;
65459;SDS011;52058;49.822;6.754;2023-10-13T07:22:59;13.18;;;5.60;;
65459;SDS011;52058;49.822;6.754;2023-10-13T07:25:29;12.27;;;5.50;;
65459;SDS011;52058;49.822;6.754;2023-10-13T07:27:57;13.45;;;5.47;;
65459;SDS011;52058;49.822;6.754;2023-10-13T07:30:24;13.30;;;5.65;;
65459;SDS011;52058;49.822;6.754;2023-10-13T07:32:53;12.05;;;5.68;;
65459;SDS011;52058;49.822;6.754;2023-10-13T07:35:24;11.82;;;5.25;;
65459;SDS011;52058;49.822;6.754;2023-10-13T07:37:52;15.40;;;5.55;;
65459;SDS011;52058;49.822;6.754;2023-10-13T07:40:19;14.98;;;5.15;;
65459;SDS011;52058;49.822;6.754;2023-10-13T07:43:04;11.93;;;5.22;;
65459;SDS011;52058;49.822;6.754;2023-10-13T07:45:35;11.10;;;5.20;;
65459;SDS011;52058;49.822;6.754;2023-10-13T07:48:02;16.33;;;5.72;;
65459;SDS011;52058;49.822;6.754;2023-10-13T07:50:38;14.70;;;5.07;;
65459;SDS011;52058;49.822;6.754;2023-10-13T07:53:05;16.65;;;5.32;;
65459;SDS011;52058;49.822;6.754;2023-10-13T07:55:43;13.50;;;5.47;;
65459;SDS011;52058;49.822;6.754;2023-10-13T07:58:11;11.98;;;5.80;;
65459;SDS011;52058;49.822;6.754;2023-10-13T08:00:38;9.77;;;5.18;;
65459;SDS011;52058;49.822;6.754;2023-10-13T08:03:12;14.40;;;6.03;;
65459;SDS011;52058;49.822;6.754;2023-10-13T08:05:54;8.43;;;4.75;;
65459;SDS011;52058;49.822;6.754;2023-10-13T08:08:29;12.00;;;5.07;;
65459;SDS011;52058;49.822;6.754;2023-10-13T08:11:03;9.07;;;4.95;;
65459;SDS011;52058;49.822;6.754;2023-10-13T08:13:37;13.05;;;5.63;;
65459;SDS011;52058;49.822;6.754;2023-10-13T08:16:05;11.73;;;5.60;;
65459;SDS011;52058;49.822;6.754;2023-10-13T08:18:34;14.18;;;4.80;;
65459;SDS011;52058;49.822;6.754;2023-10-13T08:21:07;15.27;;;5.20;;
65459;SDS011;52058;49.822;6.754;2023-10-13T08:23:41;7.93;;;4.70;;
65459;SDS011;52058;49.822;6.754;2023-10-13T08:26:24;9.85;;;4.40;;
65459;SDS011;52058;49.822;6.754;2023-10-13T08:29:04;11.95;;;5.07;;
65459;SDS011;52058;49.822;6.754;2023-10-13T08:32:02;12.52;;;5.07;;
65459;SDS011;52058;49.822;6.754;2023-10-13T08:34:39;9.52;;;4.57;;
65459;SDS011;52058;49.822;6.754;2023-10-13T08:37:26;7.72;;;4.60;;
65459;SDS011;52058;49.822;6.754;2023-10-13T08:39:59;12.80;;;5.05;;
65459;SDS011;52058;49.822;6.754;2023-10-13T08:42:40;8.50;;;4.68;;
65459;SDS011;52058;49.822;6.754;2023-10-13T08:45:18;12.70;;;5.20;;
65459;SDS011;52058;49.822;6.754;2023-10-13T08:48:06;9.73;;;4.35;;
65459;SDS011;52058;49.822;6.754;2023-10-13T08:50:38;11.02;;;5.13;;
65459;SDS011;52058;49.822;6.754;2023-10-13T08:53:19;9.73;;;5.18;;
65459;SDS011;52058;49.822;6.754;2023-10-13T08:55:52;8.02;;;5.07;;
65459;SDS011;52058;49.822;6.754;2023-10-13T08:58:30;9.75;;;5.13;;
65459;SDS011;52058;49.822;6.754;2023-10-13T09:01:11;10.02;;;5.38;;
65459;SDS011;52058;49.822;6.754;2023-10-13T09:03:39;9.23;;;5.88;;
65459;SDS011;52058;49.822;6.754;2023-10-13T09:06:06;8.93;;;5.22;;
65459;SDS011;52058;49.822;6.754;2023-10-13T09:08:41;9.77;;;5.05;;
65459;SDS011;52058;49.822;6.754;2023-10-13T09:11:33;9.90;;;5.10;;
65459;SDS011;52058;49.822;6.754;2023-10-13T09:14:14;10.73;;;5.40;;
65459;SDS011;52058;49.822;6.754;2023-10-13T09:17:02;11.82;;;5.70;;
65459;SDS011;52058;49.822;6.754;2023-10-13T09:19:44;10.95;;;5.18;;
65459;SDS011;52058;49.822;6.754;2023-10-13T09:22:20;13.85;;;5.45;;
65459;SDS011;52058;49.822;6.754;2023-10-13T09:24:55;11.93;;;5.32;;
65459;SDS011;52058;49.822;6.754;2023-10-13T09:27:24;11.20;;;5.05;;
65459;SDS011;52058;49.822;6.754;2023-10-13T09:29:58;9.38;;;5.20;;
65459;SDS011;52058;49.822;6.754;2023-10-13T09:32:35;12.10;;;5.07;;
65459;SDS011;52058;49.822;6.754;2023-10-13T09:35:11;11.07;;;5.22;;
65459;SDS011;52058;49.822;6.754;2023-10-13T09:37:42;11.25;;;5.55;;
65459;SDS011;52058;49.822;6.754;2023-10-13T09:40:12;10.68;;;5.05;;
65459;SDS011;52058;49.822;6.754;2023-10-13T09:42:59;8.82;;;5.03;;
65459;SDS011;52058;49.822;6.754;2023-10-13T09:45:30;9.50;;;4.88;;
65459;SDS011;52058;49.822;6.754;2023-10-13T09:48:01;9.73;;;5.28;;
65459;SDS011;52058;49.822;6.754;2023-10-13T09:50:31;10.20;;;5.38;;
65459;SDS011;52058;49.822;6.754;2023-10-13T09:53:03;8.47;;;5.60;;
65459;SDS011;52058;49.822;6.754;2023-10-13T09:55:36;8.80;;;5.32;;
65459;SDS011;52058;49.822;6.754;2023-10-13T09:58:09;12.15;;;5.30;;
65459;SDS011;52058;49.822;6.754;2023-10-13T10:00:40;14.70;;;5.53;;
65459;SDS011;52058;49.822;6.754;2023-10-13T10:03:13;10.10;;;5.10;;
65459;SDS011;52058;49.822;6.754;2023-10-13T10:05:57;9.63;;;5.32;;
65459;SDS011;52058;49.822;6.754;2023-10-13T10:08:31;9.73;;;5.03;;
65459;SDS011;52058;49.822;6.754;2023-10-13T10:11:17;7.28;;;5.47;;
65459;SDS011;52058;49.822;6.754;2023-10-13T10:13:57;9.18;;;4.53;;
65459;SDS011;52058;49.822;6.754;2023-10-13T10:16:37;8.13;;;5.07;;
65459;SDS011;52058;49.822;6.754;2023-10-13T10:19:11;9.02;;;5.18;;
65459;SDS011;52058;49.822;6.754;2023-10-13T10:21:38;9.15;;;5.38;;
65459;SDS011;52058;49.822;6.754;2023-10-13T10:24:15;8.82;;;4.90;;
65459;SDS011;52058;49.822;6.754;2023-10-13T10:26:53;10.52;;;5.63;;
65459;SDS011;52058;49.822;6.754;2023-10-13T10:29:20;11.18;;;5.70;;
65459;SDS011;52058;49.822;6.754;2023-10-13T10:31:46;8.73;;;5.20;;
65459;SDS011;52058;49.822;6.754;2023-10-13T10:34:13;8.07;;;5.45;;
65459;SDS011;52058;49.822;6.754;2023-10-13T10:36:44;8.35;;;5.40;;
65459;SDS011;52058;49.822;6.754;2023-10-13T10:39:13;6.28;;;4.68;;
65459;SDS011;52058;49.822;6.754;2023-10-13T10:41:40;11.52;;;5.47;;
65459;SDS011;52058;49.822;6.754;2023-10-13T10:44:18;7.95;;;5.20;;
65459;SDS011;52058;49.822;6.754;2023-10-13T10:47:07;10.88;;;5.38;;
65459;SDS011;52058;49.822;6.754;2023-10-13T10:49:36;10.98;;;4.90;;
65459;SDS011;52058;49.822;6.754;2023-10-13T10:52:03;7.10;;;4.72;;
65459;SDS011;52058;49.822;6.754;2023-10-13T10:54:43;9.75;;;5.72;;
65459;SDS011;52058;49.822;6.754;2023-10-13T10:57:11;7.50;;;4.55;;
65459;SDS011;52058;49.822;6.754;2023-10-13T10:59:43;11.77;;;4.60;;
65459;SDS011;52058;49.822;6.754;2023-10-13T11:02:10;8.52;;;4.40;;
65459;SDS011;52058;49.822;6.754;2023-10-13T11:04:40;6.93;;;4.63;;
65459;SDS011;52058;49.822;6.754;2023-10-13T11:07:20;6.80;;;4.10;;
65459;SDS011;52058;49.822;6.754;2023-10-13T11:09:48;7.55;;;4.50;;
65459;SDS011;52058;49.822;6.754;2023-10-13T11:12:18;6.35;;;4.63;;
65459;SDS011;52058;49.822;6.754;2023-10-13T11:15:00;10.07;;;4.85;;
65459;SDS011;52058;49.822;6.754;2023-10-13T11:17:30;7.80;;;4.90;;
65459;SDS011;52058;49.822;6.754;2023-10-13T11:20:16;9.55;;;4.70;;
65459;SDS011;52058;49.822;6.754;2023-10-13T11:22:50;6.30;;;4.13;;
65459;SDS011;52058;49.822;6.754;2023-10-13T11:25:21;6.60;;;4.63;;
65459;SDS011;52058;49.822;6.754;2023-10-13T11:27:54;9.02;;;4.65;;
65459;SDS011;52058;49.822;6.754;2023-10-13T11:30:25;7.45;;;4.40;;
65459;SDS011;52058;49.822;6.754;2023-10-13T11:33:07;9.88;;;5.35;;
65459;SDS011;52058;49.822;6.754;2023-10-13T11:35:35;9.07;;;4.80;;
65459;SDS011;52058;49.822;6.754;2023-10-13T11:38:20;8.60;;;4.65;;
65459;SDS011;52058;49.822;6.754;2023-10-13T11:40:52;9.07;;;4.60;;
65459;SDS011;52058;49.822;6.754;2023-10-13T11:43:37;8.13;;;4.88;;
65459;SDS011;52058;49.822;6.754;2023-10-13T11:46:27;6.85;;;4.05;;
65459;SDS011;52058;49.822;6.754;2023-10-13T11:49:13;7.32;;;4.38;;
65459;SDS011;52058;49.822;6.754;2023-10-13T11:51:44;8.27;;;4.28;;
65459;SDS011;52058;49.822;6.754;2023-10-13T11:54:11;8.32;;;4.18;;
65459;SDS011;52058;49.822;6.754;2023-10-13T11:56:38;8.57;;;4.47;;
65459;SDS011;52058;49.822;6.754;2023-10-13T11:59:04;9.57;;;4.60;;
65459;SDS011;52058;49.822;6.754;2023-10-13T12:01:32;11.57;;;4.18;;
65459;SDS011;52058;49.822;6.754;2023-10-13T12:04:13;10.00;;;4.47;;
65459;SDS011;52058;49.822;6.754;2023-10-13T12:07:05;7.43;;;3.97;;
65459;SDS011;52058;49.822;6.754;2023-10-13T12:09:42;10.32;;;4.30;;
65459;SDS011;52058;49.822;6.754;2023-10-13T12:12:28;5.85;;;4.47;;
65459;SDS011;52058;49.822;6.754;2023-10-13T12:14:55;7.93;;;4.25;;
65459;SDS011;52058;49.822;6.754;2023-10-13T12:17:24;7.07;;;4.30;;
65459;SDS011;52058;49.822;6.754;2023-10-13T12:19:56;7.22;;;4.70;;
65459;SDS011;52058;49.822;6.754;2023-10-13T12:22:24;7.53;;;4.28;;
65459;SDS011;52058;49.822;6.754;2023-10-13T12:24:54;9.20;;;4.85;;
65459;SDS011;52058;49.822;6.754;2023-10-13T12:27:20;10.27;;;4.43;;
65459;SDS011;52058;49.822;6.754;2023-10-13T12:29:51;11.85;;;4.38;;
65459;SDS011;52058;49.822;6.754;2023-10-13T12:32:21;9.82;;;4.60;;
65459;SDS011;52058;49.822;6.754;2023-10-13T12:34:51;7.32;;;4.10;;
65459;SDS011;52058;49.822;6.754;2023-10-13T12:37:42;11.43;;;4.18;;
65459;SDS011;52058;49.822;6.754;2023-10-13T12:40:29;7.35;;;3.78;;
65459;SDS011;52058;49.822;6.754;2023-10-13T12:43:13;5.20;;;3.47;;
65459;SDS011;52058;49.822;6.754;2023-10-13T12:45:57;7.45;;;4.18;;
65459;SDS011;52058;49.822;6.754;2023-10-13T12:48:41;7.22;;;3.90;;
65459;SDS011;52058;49.822;6.754;2023-10-13T12:51:30;7.15;;;3.75;;
65459;SDS011;52058;49.822;6.754;2023-10-13T12:54:17;7.50;;;4.07;;
65459;SDS011;52058;49.822;6.754;2023-10-13T12:56:48;7.38;;;4.22;;
65459;SDS011;52058;49.822;6.754;2023-10-13T12:59:21;7.50;;;3.90;;
65459;SDS011;52058;49.822;6.754;2023-10-13T13:01:51;8.73;;;4.18;;
65459;SDS011;52058;49.822;6.754;2023-10-13T13:04:18;8.50;;;4.07;;
65459;SDS011;52058;49.822;6.754;2023-10-13T13:06:46;7.70;;;4.30;;
65459;SDS011;52058;49.822;6.754;2023-10-13T13:09:13;12.32;;;4.03;;
65459;SDS011;52058;49.822;6.754;2023-10-13T13:11:40;10.63;;;4.50;;
65459;SDS011;52058;49.822;6.754;2023-10-13T13:14:07;9.65;;;4.43;;
65459;SDS011;52058;49.822;6.754;2023-10-13T13:16:34;6.43;;;4.25;;
65459;SDS011;52058;49.822;6.754;2023-10-13T13:19:01;6.63;;;4.40;;
65459;SDS011;52058;49.822;6.754;2023-10-13T13:21:35;8.05;;;4.55;;
65459;SDS011;52058;49.822;6.754;2023-10-13T13:24:03;7.30;;;4.25;;
65459;SDS011;52058;49.822;6.754;2023-10-13T13:26:35;7.38;;;4.60;;
65459;SDS011;52058;49.822;6.754;2023-10-13T13:29:05;9.05;;;4.70;;
65459;SDS011;52058;49.822;6.754;2023-10-13T13:31:34;7.38;;;4.07;;
65459;SDS011;52058;49.822;6.754;2023-10-13T13:34:06;7.72;;;4.55;;
65459;SDS011;52058;49.822;6.754;2023-10-13T13:36:34;8.88;;;4.15;;
65459;SDS011;52058;49.822;6.754;2023-10-13T13:39:02;7.88;;;4.55;;
65459;SDS011;52058;49.822;6.754;2023-10-13T13:41:31;6.30;;;4.07;;
65459;SDS011;52058;49.822;6.754;2023-10-13T13:43:58;7.55;;;4.10;;
65459;SDS011;52058;49.822;6.754;2023-10-13T13:46:38;7.30;;;3.80;;
65459;SDS011;52058;49.822;6.754;2023-10-13T13:49:07;8.63;;;3.95;;
65459;SDS011;52058;49.822;6.754;2023-10-13T13:51:42;10.20;;;4.28;;
65459;SDS011;52058;49.822;6.754;2023-10-13T13:54:17;8.38;;;4.00;;
65459;SDS011;52058;49.822;6.754;2023-10-13T13:56:45;8.45;;;4.15;;
65459;SDS011;52058;49.822;6.754;2023-10-13T13:59:12;7.97;;;4.32;;
65459;SDS011;52058;49.822;6.754;2023-10-13T14:01:41;6.60;;;4.32;;
65459;SDS011;52058;49.822;6.754;2023-10-13T14:04:09;10.25;;;3.85;;
65459;SDS011;52058;49.822;6.754;2023-10-13T14:06:36;6.97;;;4.07;;
65459;SDS011;52058;49.822;6.754;2023-10-13T14:09:04;15.13;;;4.43;;
65459;SDS011;52058;49.822;6.754;2023-10-13T14:11:41;8.25;;;4.13;;
65459;SDS011;52058;49.822;6.754;2023-10-13T14:14:25;6.93;;;3.95;;
65459;SDS011;52058;49.822;6.754;2023-10-13T14:16:59;7.13;;;3.90;;
65459;SDS011;52058;49.822;6.754;2023-10-13T14:19:32;7.80;;;4.00;;
65459;SDS011;52058;49.822;6.754;2023-10-13T14:21:59;9.73;;;4.15;;
65459;SDS011;52058;49.822;6.754;2023-10-13T14:24:31;7.85;;;4.10;;
65459;SDS011;52058;49.822;6.754;2023-10-13T14:27:01;9.60;;;4.13;;
65459;SDS011;52058;49.822;6.754;2023-10-13T14:29:34;11.15;;;3.97;;
65459;SDS011;52058;49.822;6.754;2023-10-13T14:32:05;6.78;;;3.80;;
65459;SDS011;52058;49.822;6.754;2023-10-13T14:34:37;7.30;;;3.97;;
65459;SDS011;52058;49.822;6.754;2023-10-13T14:37:04;7.15;;;3.63;;
65459;SDS011;52058;49.822;6.754;2023-10-13T14:39:30;7.70;;;4.05;;
65459;SDS011;52058;49.822;6.754;2023-10-13T14:42:00;5.75;;;3.65;;
65459;SDS011;52058;49.822;6.754;2023-10-13T14:44:27;11.15;;;4.22;;
65459;SDS011;52058;49.822;6.754;2023-10-13T14:46:54;6.47;;;4.00;;
65459;SDS011;52058;49.822;6.754;2023-10-13T14:49:22;10.13;;;4.43;;
65459;SDS011;52058;49.822;6.754;2023-10-13T14:51:49;9.43;;;3.70;;
65459;SDS011;52058;49.822;6.754;2023-10-13T14:54:16;11.98;;;3.88;;
65459;SDS011;52058;49.822;6.754;2023-10-13T14:56:50;6.82;;;4.10;;
65459;SDS011;52058;49.822;6.754;2023-10-13T14:59:21;12.05;;;4.55;;
65459;SDS011;52058;49.822;6.754;2023-10-13T15:01:47;6.88;;;3.70;;
65459;SDS011;52058;49.822;6.754;2023-10-13T15:04:14;6.55;;;4.30;;
65459;SDS011;52058;49.822;6.754;2023-10-13T15:06:41;8.15;;;4.07;;
65459;SDS011;52058;49.822;6.754;2023-10-13T15:09:09;9.63;;;4.38;;
65459;SDS011;52058;49.822;6.754;2023-10-13T15:11:36;8.80;;;4.22;;
65459;SDS011;52058;49.822;6.754;2023-10-13T15:14:03;9.77;;;4.55;;
65459;SDS011;52058;49.822;6.754;2023-10-13T15:16:33;7.60;;;4.20;;
65459;SDS011;52058;49.822;6.754;2023-10-13T15:18:59;6.90;;;4.25;;